sensor_id;sensor_type;location;lat;lon;timestamp;P1;durP1;ratioP1;P2;durP2;ratioP2
9997;SDS011;5038;53.064;8.624;2022-12-24T00:01:31;19.77;;;17.77;;
9997;SDS011;5038;53.064;8.624;2022-12-24T00:04:00;20.40;;;17.23;;
9997;SDS011;5038;53.064;8.624;2022-12-24T00:06:29;19.90;;;17.80;;
9997;SDS011;5038;53.064;8.624;2022-12-24T00:08:58;19.83;;;17.73;;
9997;SDS011;5038;53.064;8.624;2022-12-24T00:11:26;18.90;;;16.63;;
9997;SDS011;5038;53.064;8.624;2022-12-24T00:13:54;19.13;;;16.10;;
9997;SDS011;5038;53.064;8.624;2022-12-24T00:16:23;19.67;;;17.20;;
9997;SDS011;5038;53.064;8.624;2022-12-24T00:18:51;15.97;;;13.20;;
9997;SDS011;5038;53.064;8.624;2022-12-24T00:21:19;19.17;;;16.20;;
9997;SDS011;5038;53.064;8.624;2022-12-24T00:23:49;20.40;;;16.50;;
9997;SDS011;5038;53.064;8.624;2022-12-24T00:26:17;20.17;;;17.70;;
9997;SDS011;5038;53.064;8.624;2022-12-24T00:28:45;20.27;;;18.17;;
9997;SDS011;5038;53.064;8.624;2022-12-24T00:31:14;19.27;;;17.20;;
9997;SDS011;5038;53.064;8.624;2022-12-24T00:33:44;18.80;;;16.73;;
9997;SDS011;5038;53.064;8.624;2022-12-24T00:36:13;19.93;;;17.20;;
9997;SDS011;5038;53.064;8.624;2022-12-24T00:38:41;21.37;;;17.93;;
9997;SDS011;5038;53.064;8.624;2022-12-24T00:41:12;20.20;;;17.53;;
9997;SDS011;5038;53.064;8.624;2022-12-24T00:43:51;21.30;;;18.60;;
9997;SDS011;5038;53.064;8.624;2022-12-24T00:46:20;18.00;;;16.10;;
9997;SDS011;5038;53.064;8.624;2022-12-24T00:48:49;18.90;;;16.87;;
9997;SDS011;5038;53.064;8.624;2022-12-24T00:51:17;19.50;;;17.10;;
9997;SDS011;5038;53.064;8.624;2022-12-24T00:53:47;18.03;;;15.83;;
9997;SDS011;5038;53.064;8.624;2022-12-24T00:56:16;18.63;;;15.90;;
9997;SDS011;5038;53.064;8.624;2022-12-24T00:58:45;17.70;;;15.80;;
9997;SDS011;5038;53.064;8.624;2022-12-24T01:01:13;17.70;;;15.83;;
9997;SDS011;5038;53.064;8.624;2022-12-24T01:03:42;18.60;;;15.70;;
9997;SDS011;5038;53.064;8.624;2022-12-24T01:06:11;18.03;;;16.20;;
9997;SDS011;5038;53.064;8.624;2022-12-24T01:08:41;19.10;;;17.00;;
9997;SDS011;5038;53.064;8.624;2022-12-24T01:11:09;19.93;;;17.83;;
9997;SDS011;5038;53.064;8.624;2022-12-24T01:13:41;20.07;;;17.97;;
9997;SDS011;5038;53.064;8.624;2022-12-24T01:16:12;18.90;;;16.60;;
9997;SDS011;5038;53.064;8.624;2022-12-24T01:18:42;17.87;;;16.07;;
9997;SDS011;5038;53.064;8.624;2022-12-24T01:21:10;18.27;;;16.40;;
9997;SDS011;5038;53.064;8.624;2022-12-24T01:23:38;19.50;;;17.37;;
9997;SDS011;5038;53.064;8.624;2022-12-24T01:26:07;17.60;;;15.80;;
9997;SDS011;5038;53.064;8.624;2022-12-24T01:28:37;16.90;;;15.10;;
9997;SDS011;5038;53.064;8.624;2022-12-24T01:31:10;16.90;;;15.20;;
9997;SDS011;5038;53.064;8.624;2022-12-24T01:33:40;17.90;;;16.00;;
9997;SDS011;5038;53.064;8.624;2022-12-24T01:36:09;18.80;;;16.90;;
9997;SDS011;5038;53.064;8.624;2022-12-24T01:38:37;18.30;;;16.17;;
9997;SDS011;5038;53.064;8.624;2022-12-24T01:41:06;18.53;;;16.53;;
9997;SDS011;5038;53.064;8.624;2022-12-24T01:43:57;17.30;;;15.10;;
9997;SDS011;5038;53.064;8.624;2022-12-24T01:46:27;18.33;;;16.43;;
9997;SDS011;5038;53.064;8.624;2022-12-24T01:48:59;17.63;;;15.73;;
9997;SDS011;5038;53.064;8.624;2022-12-24T01:51:32;18.47;;;15.77;;
9997;SDS011;5038;53.064;8.624;2022-12-24T01:54:04;16.83;;;15.13;;
9997;SDS011;5038;53.064;8.624;2022-12-24T01:56:38;16.50;;;14.90;;
9997;SDS011;5038;53.064;8.624;2022-12-24T01:59:09;16.17;;;14.47;;
9997;SDS011;5038;53.064;8.624;2022-12-24T02:01:41;17.97;;;15.30;;
9997;SDS011;5038;53.064;8.624;2022-12-24T02:04:11;17.03;;;15.03;;
9997;SDS011;5038;53.064;8.624;2022-12-24T02:06:44;17.43;;;15.60;;
9997;SDS011;5038;53.064;8.624;2022-12-24T02:09:12;16.40;;;14.60;;
9997;SDS011;5038;53.064;8.624;2022-12-24T02:11:43;19.13;;;15.97;;
9997;SDS011;5038;53.064;8.624;2022-12-24T02:14:12;16.63;;;14.93;;
9997;SDS011;5038;53.064;8.624;2022-12-24T02:16:45;17.47;;;15.63;;
9997;SDS011;5038;53.064;8.624;2022-12-24T02:19:26;17.43;;;15.63;;
9997;SDS011;5038;53.064;8.624;2022-12-24T02:22:17;16.50;;;14.80;;
9997;SDS011;5038;53.064;8.624;2022-12-24T02:25:02;17.93;;;15.70;;
9997;SDS011;5038;53.064;8.624;2022-12-24T02:27:50;17.17;;;15.37;;
9997;SDS011;5038;53.064;8.624;2022-12-24T02:30:24;17.80;;;15.97;;
9997;SDS011;5038;53.064;8.624;2022-12-24T02:33:03;19.67;;;15.30;;
9997;SDS011;5038;53.064;8.624;2022-12-24T02:35:46;17.33;;;15.33;;
9997;SDS011;5038;53.064;8.624;2022-12-24T02:38:19;17.93;;;16.00;;
9997;SDS011;5038;53.064;8.624;2022-12-24T02:40:53;16.90;;;15.10;;
9997;SDS011;5038;53.064;8.624;2022-12-24T02:43:25;16.20;;;14.60;;
9997;SDS011;5038;53.064;8.624;2022-12-24T02:46:01;18.23;;;16.30;;
9997;SDS011;5038;53.064;8.624;2022-12-24T02:48:32;18.80;;;15.97;;
9997;SDS011;5038;53.064;8.624;2022-12-24T02:51:07;18.03;;;15.40;;
9997;SDS011;5038;53.064;8.624;2022-12-24T02:53:37;18.87;;;15.47;;
9997;SDS011;5038;53.064;8.624;2022-12-24T02:56:23;19.10;;;16.67;;
9997;SDS011;5038;53.064;8.624;2022-12-24T02:59:08;18.23;;;16.10;;
9997;SDS011;5038;53.064;8.624;2022-12-24T03:01:59;16.63;;;14.90;;
9997;SDS011;5038;53.064;8.624;2022-12-24T03:04:37;16.63;;;14.90;;
9997;SDS011;5038;53.064;8.624;2022-12-24T03:07:14;17.67;;;15.77;;
9997;SDS011;5038;53.064;8.624;2022-12-24T03:09:50;17.50;;;15.70;;
9997;SDS011;5038;53.064;8.624;2022-12-24T03:12:35;16.60;;;14.90;;
9997;SDS011;5038;53.064;8.624;2022-12-24T03:15:08;18.43;;;16.53;;
9997;SDS011;5038;53.064;8.624;2022-12-24T03:17:41;19.53;;;16.30;;
9997;SDS011;5038;53.064;8.624;2022-12-24T03:20:11;16.20;;;14.50;;
9997;SDS011;5038;53.064;8.624;2022-12-24T03:22:44;18.23;;;16.20;;
9997;SDS011;5038;53.064;8.624;2022-12-24T03:25:12;18.90;;;16.37;;
9997;SDS011;5038;53.064;8.624;2022-12-24T03:27:41;18.03;;;16.27;;
9997;SDS011;5038;53.064;8.624;2022-12-24T03:30:12;18.43;;;16.53;;
9997;SDS011;5038;53.064;8.624;2022-12-24T03:32:43;18.60;;;16.17;;
9997;SDS011;5038;53.064;8.624;2022-12-24T03:35:13;18.73;;;16.73;;
9997;SDS011;5038;53.064;8.624;2022-12-24T03:37:41;19.10;;;16.40;;
9997;SDS011;5038;53.064;8.624;2022-12-24T03:40:09;19.57;;;17.47;;
9997;SDS011;5038;53.064;8.624;2022-12-24T03:42:38;19.20;;;17.00;;
9997;SDS011;5038;53.064;8.624;2022-12-24T03:45:07;20.93;;;18.83;;
9997;SDS011;5038;53.064;8.624;2022-12-24T03:47:35;20.30;;;18.20;;
9997;SDS011;5038;53.064;8.624;2022-12-24T03:50:06;19.80;;;17.70;;
9997;SDS011;5038;53.064;8.624;2022-12-24T03:52:34;19.93;;;17.03;;
9997;SDS011;5038;53.064;8.624;2022-12-24T03:55:03;19.77;;;17.73;;
9997;SDS011;5038;53.064;8.624;2022-12-24T03:57:31;20.67;;;18.47;;
9997;SDS011;5038;53.064;8.624;2022-12-24T04:00:00;19.77;;;17.57;;
9997;SDS011;5038;53.064;8.624;2022-12-24T04:02:37;19.50;;;17.50;;
9997;SDS011;5038;53.064;8.624;2022-12-24T04:05:08;19.80;;;17.70;;
9997;SDS011;5038;53.064;8.624;2022-12-24T04:07:41;19.37;;;17.27;;
9997;SDS011;5038;53.064;8.624;2022-12-24T04:10:10;21.87;;;18.07;;
9997;SDS011;5038;53.064;8.624;2022-12-24T04:12:39;19.63;;;17.57;;
9997;SDS011;5038;53.064;8.624;2022-12-24T04:15:07;22.20;;;19.90;;
9997;SDS011;5038;53.064;8.624;2022-12-24T04:17:36;20.00;;;17.40;;
9997;SDS011;5038;53.064;8.624;2022-12-24T04:20:07;19.30;;;17.30;;
9997;SDS011;5038;53.064;8.624;2022-12-24T04:22:36;20.83;;;18.63;;
9997;SDS011;5038;53.064;8.624;2022-12-24T04:25:04;20.20;;;18.00;;
9997;SDS011;5038;53.064;8.624;2022-12-24T04:27:33;22.50;;;19.00;;
9997;SDS011;5038;53.064;8.624;2022-12-24T04:30:02;21.07;;;17.77;;
9997;SDS011;5038;53.064;8.624;2022-12-24T04:32:31;21.20;;;19.10;;
9997;SDS011;5038;53.064;8.624;2022-12-24T04:34:59;23.00;;;19.17;;
9997;SDS011;5038;53.064;8.624;2022-12-24T04:37:28;24.20;;;20.33;;
9997;SDS011;5038;53.064;8.624;2022-12-24T04:39:56;30.63;;;23.47;;
9997;SDS011;5038;53.064;8.624;2022-12-24T04:42:24;31.60;;;25.20;;
9997;SDS011;5038;53.064;8.624;2022-12-24T04:44:53;33.77;;;26.90;;
9997;SDS011;5038;53.064;8.624;2022-12-24T04:47:21;37.17;;;28.00;;
9997;SDS011;5038;53.064;8.624;2022-12-24T04:49:49;35.40;;;28.40;;
9997;SDS011;5038;53.064;8.624;2022-12-24T04:52:17;40.57;;;30.33;;
9997;SDS011;5038;53.064;8.624;2022-12-24T04:54:47;41.07;;;31.00;;
9997;SDS011;5038;53.064;8.624;2022-12-24T04:57:15;50.93;;;32.73;;
9997;SDS011;5038;53.064;8.624;2022-12-24T04:59:43;45.67;;;33.10;;
9997;SDS011;5038;53.064;8.624;2022-12-24T05:02:11;49.20;;;32.10;;
9997;SDS011;5038;53.064;8.624;2022-12-24T05:04:39;45.03;;;32.60;;
9997;SDS011;5038;53.064;8.624;2022-12-24T05:07:08;45.77;;;33.37;;
9997;SDS011;5038;53.064;8.624;2022-12-24T05:09:36;50.50;;;34.87;;
9997;SDS011;5038;53.064;8.624;2022-12-24T05:12:05;45.60;;;33.77;;
9997;SDS011;5038;53.064;8.624;2022-12-24T05:14:34;46.73;;;33.50;;
9997;SDS011;5038;53.064;8.624;2022-12-24T05:17:02;50.27;;;32.97;;
9997;SDS011;5038;53.064;8.624;2022-12-24T05:19:31;42.73;;;31.33;;
9997;SDS011;5038;53.064;8.624;2022-12-24T05:21:59;41.10;;;32.17;;
9997;SDS011;5038;53.064;8.624;2022-12-24T05:24:44;45.97;;;30.97;;
9997;SDS011;5038;53.064;8.624;2022-12-24T05:27:31;42.83;;;31.50;;
9997;SDS011;5038;53.064;8.624;2022-12-24T05:29:59;37.97;;;29.17;;
9997;SDS011;5038;53.064;8.624;2022-12-24T05:32:27;41.53;;;29.33;;
9997;SDS011;5038;53.064;8.624;2022-12-24T05:34:55;44.37;;;29.50;;
9997;SDS011;5038;53.064;8.624;2022-12-24T05:37:23;38.50;;;27.80;;
9997;SDS011;5038;53.064;8.624;2022-12-24T05:39:51;37.00;;;26.83;;
9997;SDS011;5038;53.064;8.624;2022-12-24T05:42:20;34.20;;;26.40;;
9997;SDS011;5038;53.064;8.624;2022-12-24T05:44:49;37.30;;;25.20;;
9997;SDS011;5038;53.064;8.624;2022-12-24T05:47:18;30.07;;;23.00;;
9997;SDS011;5038;53.064;8.624;2022-12-24T05:49:47;27.93;;;21.27;;
9997;SDS011;5038;53.064;8.624;2022-12-24T05:52:15;31.70;;;21.73;;
9997;SDS011;5038;53.064;8.624;2022-12-24T05:54:43;31.73;;;22.80;;
9997;SDS011;5038;53.064;8.624;2022-12-24T05:57:11;26.47;;;19.40;;
9997;SDS011;5038;53.064;8.624;2022-12-24T05:59:39;27.40;;;19.00;;
9997;SDS011;5038;53.064;8.624;2022-12-24T06:02:09;23.80;;;18.33;;
9997;SDS011;5038;53.064;8.624;2022-12-24T06:04:37;26.80;;;18.37;;
9997;SDS011;5038;53.064;8.624;2022-12-24T06:07:06;27.60;;;18.97;;
9997;SDS011;5038;53.064;8.624;2022-12-24T06:09:34;24.63;;;17.20;;
9997;SDS011;5038;53.064;8.624;2022-12-24T06:12:02;34.37;;;18.00;;
9997;SDS011;5038;53.064;8.624;2022-12-24T06:14:31;21.87;;;16.10;;
9997;SDS011;5038;53.064;8.624;2022-12-24T06:16:59;25.80;;;16.40;;
9997;SDS011;5038;53.064;8.624;2022-12-24T06:19:28;24.57;;;14.30;;
9997;SDS011;5038;53.064;8.624;2022-12-24T06:21:56;26.67;;;14.80;;
9997;SDS011;5038;53.064;8.624;2022-12-24T06:24:24;25.93;;;13.70;;
9997;SDS011;5038;53.064;8.624;2022-12-24T06:26:52;28.20;;;13.20;;
9997;SDS011;5038;53.064;8.624;2022-12-24T06:29:21;23.73;;;13.93;;
9997;SDS011;5038;53.064;8.624;2022-12-24T06:31:51;30.17;;;13.23;;
9997;SDS011;5038;53.064;8.624;2022-12-24T06:34:20;26.47;;;12.73;;
9997;SDS011;5038;53.064;8.624;2022-12-24T06:36:49;26.77;;;12.83;;
9997;SDS011;5038;53.064;8.624;2022-12-24T06:39:17;25.07;;;12.87;;
9997;SDS011;5038;53.064;8.624;2022-12-24T06:41:46;30.03;;;13.10;;
9997;SDS011;5038;53.064;8.624;2022-12-24T06:44:14;33.10;;;13.93;;
9997;SDS011;5038;53.064;8.624;2022-12-24T06:46:42;25.73;;;11.77;;
9997;SDS011;5038;53.064;8.624;2022-12-24T06:49:10;23.67;;;11.87;;
9997;SDS011;5038;53.064;8.624;2022-12-24T06:51:38;30.37;;;12.33;;
9997;SDS011;5038;53.064;8.624;2022-12-24T06:54:08;25.43;;;11.03;;
9997;SDS011;5038;53.064;8.624;2022-12-24T06:56:36;28.43;;;10.83;;
9997;SDS011;5038;53.064;8.624;2022-12-24T06:59:04;29.43;;;11.83;;
9997;SDS011;5038;53.064;8.624;2022-12-24T07:01:32;24.83;;;10.23;;
9997;SDS011;5038;53.064;8.624;2022-12-24T07:04:01;33.83;;;10.07;;
9997;SDS011;5038;53.064;8.624;2022-12-24T07:06:29;26.13;;;9.13;;
9997;SDS011;5038;53.064;8.624;2022-12-24T07:08:57;25.40;;;9.37;;
9997;SDS011;5038;53.064;8.624;2022-12-24T07:11:27;22.97;;;8.80;;
9997;SDS011;5038;53.064;8.624;2022-12-24T07:13:55;24.33;;;8.73;;
9997;SDS011;5038;53.064;8.624;2022-12-24T07:16:23;25.97;;;8.87;;
9997;SDS011;5038;53.064;8.624;2022-12-24T07:18:51;31.27;;;9.70;;
9997;SDS011;5038;53.064;8.624;2022-12-24T07:21:19;29.47;;;10.10;;
9997;SDS011;5038;53.064;8.624;2022-12-24T07:23:47;26.93;;;8.83;;
9997;SDS011;5038;53.064;8.624;2022-12-24T07:26:15;25.97;;;9.63;;
9997;SDS011;5038;53.064;8.624;2022-12-24T07:28:45;26.53;;;9.00;;
9997;SDS011;5038;53.064;8.624;2022-12-24T07:31:14;29.50;;;10.60;;
9997;SDS011;5038;53.064;8.624;2022-12-24T07:33:42;26.33;;;9.27;;
9997;SDS011;5038;53.064;8.624;2022-12-24T07:36:13;32.33;;;10.13;;
9997;SDS011;5038;53.064;8.624;2022-12-24T07:38:45;27.77;;;9.53;;
9997;SDS011;5038;53.064;8.624;2022-12-24T07:41:13;28.43;;;8.80;;
9997;SDS011;5038;53.064;8.624;2022-12-24T07:43:41;27.43;;;8.60;;
9997;SDS011;5038;53.064;8.624;2022-12-24T07:46:11;22.73;;;8.03;;
9997;SDS011;5038;53.064;8.624;2022-12-24T07:48:40;40.20;;;10.23;;
9997;SDS011;5038;53.064;8.624;2022-12-24T07:51:08;32.13;;;9.73;;
9997;SDS011;5038;53.064;8.624;2022-12-24T07:53:36;26.47;;;9.23;;
9997;SDS011;5038;53.064;8.624;2022-12-24T07:56:04;29.87;;;9.23;;
9997;SDS011;5038;53.064;8.624;2022-12-24T07:58:38;39.33;;;10.57;;
9997;SDS011;5038;53.064;8.624;2022-12-24T08:01:11;25.30;;;8.90;;
9997;SDS011;5038;53.064;8.624;2022-12-24T08:03:39;38.63;;;9.87;;
9997;SDS011;5038;53.064;8.624;2022-12-24T08:06:07;26.30;;;8.80;;
9997;SDS011;5038;53.064;8.624;2022-12-24T08:08:36;32.00;;;9.87;;
9997;SDS011;5038;53.064;8.624;2022-12-24T08:11:05;24.23;;;9.13;;
9997;SDS011;5038;53.064;8.624;2022-12-24T08:13:33;31.00;;;9.73;;
9997;SDS011;5038;53.064;8.624;2022-12-24T08:16:02;25.27;;;10.20;;
9997;SDS011;5038;53.064;8.624;2022-12-24T08:18:32;29.83;;;10.87;;
9997;SDS011;5038;53.064;8.624;2022-12-24T08:21:00;30.50;;;9.97;;
9997;SDS011;5038;53.064;8.624;2022-12-24T08:23:28;33.23;;;10.43;;
9997;SDS011;5038;53.064;8.624;2022-12-24T08:25:56;31.33;;;9.90;;
9997;SDS011;5038;53.064;8.624;2022-12-24T08:28:24;27.73;;;11.50;;
9997;SDS011;5038;53.064;8.624;2022-12-24T08:30:52;36.30;;;12.20;;
9997;SDS011;5038;53.064;8.624;2022-12-24T08:33:21;27.80;;;11.60;;
9997;SDS011;5038;53.064;8.624;2022-12-24T08:35:51;30.10;;;12.00;;
9997;SDS011;5038;53.064;8.624;2022-12-24T08:38:20;31.97;;;12.97;;
9997;SDS011;5038;53.064;8.624;2022-12-24T08:40:48;32.03;;;12.10;;
9997;SDS011;5038;53.064;8.624;2022-12-24T08:43:19;39.60;;;12.67;;
9997;SDS011;5038;53.064;8.624;2022-12-24T08:45:48;29.67;;;10.97;;
9997;SDS011;5038;53.064;8.624;2022-12-24T08:48:16;34.63;;;11.77;;
9997;SDS011;5038;53.064;8.624;2022-12-24T08:50:45;28.90;;;11.53;;
9997;SDS011;5038;53.064;8.624;2022-12-24T08:53:14;41.00;;;12.97;;
9997;SDS011;5038;53.064;8.624;2022-12-24T08:55:43;41.27;;;12.10;;
9997;SDS011;5038;53.064;8.624;2022-12-24T08:58:19;41.37;;;12.70;;
9997;SDS011;5038;53.064;8.624;2022-12-24T09:00:47;35.60;;;13.10;;
9997;SDS011;5038;53.064;8.624;2022-12-24T09:03:15;41.63;;;13.83;;
9997;SDS011;5038;53.064;8.624;2022-12-24T09:05:52;31.67;;;13.27;;
9997;SDS011;5038;53.064;8.624;2022-12-24T09:08:22;35.20;;;13.47;;
9997;SDS011;5038;53.064;8.624;2022-12-24T09:10:50;33.10;;;13.87;;
9997;SDS011;5038;53.064;8.624;2022-12-24T09:13:18;38.30;;;12.80;;
9997;SDS011;5038;53.064;8.624;2022-12-24T09:15:51;33.13;;;14.47;;
9997;SDS011;5038;53.064;8.624;2022-12-24T09:18:20;35.60;;;14.90;;
9997;SDS011;5038;53.064;8.624;2022-12-24T09:20:48;40.10;;;16.33;;
9997;SDS011;5038;53.064;8.624;2022-12-24T09:23:24;39.20;;;16.60;;
9997;SDS011;5038;53.064;8.624;2022-12-24T09:25:52;33.20;;;15.90;;
9997;SDS011;5038;53.064;8.624;2022-12-24T09:28:20;43.80;;;15.73;;
9997;SDS011;5038;53.064;8.624;2022-12-24T09:30:56;32.70;;;15.37;;
9997;SDS011;5038;53.064;8.624;2022-12-24T09:33:24;30.70;;;14.80;;
9997;SDS011;5038;53.064;8.624;2022-12-24T09:35:53;36.30;;;14.80;;
9997;SDS011;5038;53.064;8.624;2022-12-24T09:38:21;32.13;;;13.90;;
9997;SDS011;5038;53.064;8.624;2022-12-24T09:40:51;35.53;;;15.03;;
9997;SDS011;5038;53.064;8.624;2022-12-24T09:43:21;34.37;;;14.40;;
9997;SDS011;5038;53.064;8.624;2022-12-24T09:45:54;36.17;;;14.33;;
9997;SDS011;5038;53.064;8.624;2022-12-24T09:48:31;27.33;;;12.17;;
9997;SDS011;5038;53.064;8.624;2022-12-24T09:51:02;31.00;;;12.20;;
9997;SDS011;5038;53.064;8.624;2022-12-24T09:53:36;39.43;;;15.30;;
9997;SDS011;5038;53.064;8.624;2022-12-24T09:56:11;33.67;;;14.40;;
9997;SDS011;5038;53.064;8.624;2022-12-24T09:58:43;35.23;;;13.90;;
9997;SDS011;5038;53.064;8.624;2022-12-24T10:01:14;29.93;;;13.50;;
9997;SDS011;5038;53.064;8.624;2022-12-24T10:03:44;28.63;;;12.07;;
9997;SDS011;5038;53.064;8.624;2022-12-24T10:06:14;34.53;;;12.23;;
9997;SDS011;5038;53.064;8.624;2022-12-24T10:08:58;28.63;;;11.40;;
9997;SDS011;5038;53.064;8.624;2022-12-24T10:11:35;27.57;;;12.47;;
9997;SDS011;5038;53.064;8.624;2022-12-24T10:14:20;28.10;;;11.50;;
9997;SDS011;5038;53.064;8.624;2022-12-24T10:16:57;32.50;;;13.53;;
9997;SDS011;5038;53.064;8.624;2022-12-24T10:19:41;29.17;;;12.23;;
9997;SDS011;5038;53.064;8.624;2022-12-24T10:22:18;26.03;;;12.50;;
9997;SDS011;5038;53.064;8.624;2022-12-24T10:24:57;31.70;;;13.83;;
9997;SDS011;5038;53.064;8.624;2022-12-24T10:27:32;31.73;;;13.40;;
9997;SDS011;5038;53.064;8.624;2022-12-24T10:30:05;28.80;;;13.10;;
9997;SDS011;5038;53.064;8.624;2022-12-24T10:32:42;28.07;;;12.83;;
9997;SDS011;5038;53.064;8.624;2022-12-24T10:35:16;34.40;;;13.47;;
9997;SDS011;5038;53.064;8.624;2022-12-24T10:37:50;27.90;;;12.23;;
9997;SDS011;5038;53.064;8.624;2022-12-24T10:40:29;28.10;;;11.87;;
9997;SDS011;5038;53.064;8.624;2022-12-24T10:43:04;34.67;;;13.70;;
9997;SDS011;5038;53.064;8.624;2022-12-24T10:45:40;30.10;;;12.13;;
9997;SDS011;5038;53.064;8.624;2022-12-24T10:48:13;30.97;;;11.70;;
9997;SDS011;5038;53.064;8.624;2022-12-24T10:50:58;33.90;;;12.70;;
9997;SDS011;5038;53.064;8.624;2022-12-24T10:53:39;28.60;;;12.80;;
9997;SDS011;5038;53.064;8.624;2022-12-24T10:56:13;36.00;;;13.73;;
9997;SDS011;5038;53.064;8.624;2022-12-24T10:58:43;29.80;;;11.77;;
9997;SDS011;5038;53.064;8.624;2022-12-24T11:01:13;32.50;;;12.80;;
9997;SDS011;5038;53.064;8.624;2022-12-24T11:03:41;28.73;;;13.00;;
9997;SDS011;5038;53.064;8.624;2022-12-24T11:06:10;32.80;;;13.40;;
9997;SDS011;5038;53.064;8.624;2022-12-24T11:08:41;29.27;;;12.27;;
9997;SDS011;5038;53.064;8.624;2022-12-24T11:11:10;35.33;;;11.90;;
9997;SDS011;5038;53.064;8.624;2022-12-24T11:13:42;30.10;;;12.27;;
9997;SDS011;5038;53.064;8.624;2022-12-24T11:16:14;33.40;;;12.33;;
9997;SDS011;5038;53.064;8.624;2022-12-24T11:18:45;26.00;;;11.83;;
9997;SDS011;5038;53.064;8.624;2022-12-24T11:21:18;33.37;;;12.40;;
9997;SDS011;5038;53.064;8.624;2022-12-24T11:23:49;29.83;;;11.70;;
9997;SDS011;5038;53.064;8.624;2022-12-24T11:26:22;25.60;;;10.97;;
9997;SDS011;5038;53.064;8.624;2022-12-24T11:31:41;28.00;;;12.27;;
9997;SDS011;5038;53.064;8.624;2022-12-24T11:34:17;29.23;;;12.20;;
9997;SDS011;5038;53.064;8.624;2022-12-24T11:36:51;34.37;;;12.13;;
9997;SDS011;5038;53.064;8.624;2022-12-24T11:39:21;27.50;;;12.57;;
9997;SDS011;5038;53.064;8.624;2022-12-24T11:41:53;33.27;;;13.67;;
9997;SDS011;5038;53.064;8.624;2022-12-24T11:44:23;32.20;;;13.43;;
9997;SDS011;5038;53.064;8.624;2022-12-24T11:46:52;28.80;;;13.70;;
9997;SDS011;5038;53.064;8.624;2022-12-24T11:49:23;27.33;;;12.90;;
9997;SDS011;5038;53.064;8.624;2022-12-24T11:52:03;33.20;;;14.30;;
9997;SDS011;5038;53.064;8.624;2022-12-24T11:54:49;32.23;;;14.70;;
9997;SDS011;5038;53.064;8.624;2022-12-24T11:57:30;33.33;;;13.67;;
9997;SDS011;5038;53.064;8.624;2022-12-24T12:00:04;34.77;;;14.00;;
9997;SDS011;5038;53.064;8.624;2022-12-24T12:02:37;30.83;;;13.87;;
9997;SDS011;5038;53.064;8.624;2022-12-24T12:05:08;40.17;;;14.83;;
9997;SDS011;5038;53.064;8.624;2022-12-24T12:07:39;28.63;;;14.10;;
9997;SDS011;5038;53.064;8.624;2022-12-24T12:10:10;29.63;;;14.73;;
9997;SDS011;5038;53.064;8.624;2022-12-24T12:12:45;27.83;;;14.70;;
9997;SDS011;5038;53.064;8.624;2022-12-24T12:15:21;27.20;;;13.93;;
9997;SDS011;5038;53.064;8.624;2022-12-24T12:17:53;36.00;;;14.20;;
9997;SDS011;5038;53.064;8.624;2022-12-24T12:20:25;30.23;;;14.63;;
9997;SDS011;5038;53.064;8.624;2022-12-24T12:22:58;30.07;;;13.27;;
9997;SDS011;5038;53.064;8.624;2022-12-24T12:25:31;30.53;;;13.83;;
9997;SDS011;5038;53.064;8.624;2022-12-24T12:28:07;25.67;;;13.60;;
9997;SDS011;5038;53.064;8.624;2022-12-24T12:30:42;29.23;;;13.23;;
9997;SDS011;5038;53.064;8.624;2022-12-24T12:33:13;29.80;;;13.60;;
9997;SDS011;5038;53.064;8.624;2022-12-24T12:35:46;26.20;;;12.77;;
9997;SDS011;5038;53.064;8.624;2022-12-24T12:38:18;39.50;;;15.20;;
9997;SDS011;5038;53.064;8.624;2022-12-24T12:41:00;24.77;;;13.60;;
9997;SDS011;5038;53.064;8.624;2022-12-24T12:43:41;23.33;;;12.77;;
9997;SDS011;5038;53.064;8.624;2022-12-24T12:46:34;24.27;;;11.70;;
9997;SDS011;5038;53.064;8.624;2022-12-24T12:49:17;21.40;;;11.70;;
9997;SDS011;5038;53.064;8.624;2022-12-24T12:51:58;20.90;;;10.97;;
9997;SDS011;5038;53.064;8.624;2022-12-24T12:54:45;25.07;;;11.33;;
9997;SDS011;5038;53.064;8.624;2022-12-24T12:57:25;20.03;;;10.73;;
9997;SDS011;5038;53.064;8.624;2022-12-24T13:00:01;21.03;;;10.07;;
9997;SDS011;5038;53.064;8.624;2022-12-24T13:02:47;16.87;;;10.53;;
9997;SDS011;5038;53.064;8.624;2022-12-24T13:08:41;20.30;;;10.13;;
9997;SDS011;5038;53.064;8.624;2022-12-24T13:11:37;15.77;;;7.87;;
9997;SDS011;5038;53.064;8.624;2022-12-24T13:14:21;20.47;;;7.93;;
9997;SDS011;5038;53.064;8.624;2022-12-24T13:17:11;15.10;;;7.30;;
9997;SDS011;5038;53.064;8.624;2022-12-24T13:20:03;15.53;;;7.57;;
9997;SDS011;5038;53.064;8.624;2022-12-24T13:22:46;19.70;;;8.33;;
9997;SDS011;5038;53.064;8.624;2022-12-24T13:25:21;16.53;;;8.13;;
9997;SDS011;5038;53.064;8.624;2022-12-24T13:27:53;18.50;;;8.10;;
9997;SDS011;5038;53.064;8.624;2022-12-24T13:30:32;17.77;;;7.50;;
9997;SDS011;5038;53.064;8.624;2022-12-24T13:33:08;15.53;;;6.90;;
9997;SDS011;5038;53.064;8.624;2022-12-24T13:35:58;13.27;;;6.97;;
9997;SDS011;5038;53.064;8.624;2022-12-24T13:38:38;15.13;;;7.33;;
9997;SDS011;5038;53.064;8.624;2022-12-24T13:44:25;18.73;;;7.80;;
9997;SDS011;5038;53.064;8.624;2022-12-24T13:47:03;17.10;;;8.77;;
9997;SDS011;5038;53.064;8.624;2022-12-24T13:49:56;17.97;;;7.90;;
9997;SDS011;5038;53.064;8.624;2022-12-24T13:52:47;15.30;;;8.17;;
9997;SDS011;5038;53.064;8.624;2022-12-24T13:55:17;17.20;;;7.63;;
9997;SDS011;5038;53.064;8.624;2022-12-24T13:57:52;16.20;;;7.90;;
9997;SDS011;5038;53.064;8.624;2022-12-24T14:00:30;20.70;;;7.33;;
9997;SDS011;5038;53.064;8.624;2022-12-24T14:03:04;14.83;;;6.60;;
9997;SDS011;5038;53.064;8.624;2022-12-24T14:05:49;16.37;;;6.50;;
9997;SDS011;5038;53.064;8.624;2022-12-24T14:08:27;13.90;;;6.10;;
9997;SDS011;5038;53.064;8.624;2022-12-24T14:11:08;20.60;;;6.60;;
9997;SDS011;5038;53.064;8.624;2022-12-24T14:16:41;12.67;;;7.70;;
9997;SDS011;5038;53.064;8.624;2022-12-24T14:19:18;16.83;;;6.90;;
9997;SDS011;5038;53.064;8.624;2022-12-24T14:21:52;19.63;;;6.70;;
9997;SDS011;5038;53.064;8.624;2022-12-24T14:24:25;16.40;;;7.73;;
9997;SDS011;5038;53.064;8.624;2022-12-24T14:26:59;15.23;;;7.00;;
9997;SDS011;5038;53.064;8.624;2022-12-24T14:29:43;20.00;;;7.43;;
9997;SDS011;5038;53.064;8.624;2022-12-24T14:32:16;19.73;;;7.80;;
9997;SDS011;5038;53.064;8.624;2022-12-24T14:34:45;17.53;;;7.27;;
9997;SDS011;5038;53.064;8.624;2022-12-24T14:37:22;14.80;;;7.20;;
9997;SDS011;5038;53.064;8.624;2022-12-24T14:39:56;20.13;;;8.00;;
9997;SDS011;5038;53.064;8.624;2022-12-24T14:42:29;24.40;;;7.60;;
9997;SDS011;5038;53.064;8.624;2022-12-24T14:45:03;19.03;;;8.47;;
9997;SDS011;5038;53.064;8.624;2022-12-24T14:47:42;19.83;;;8.50;;
9997;SDS011;5038;53.064;8.624;2022-12-24T14:50:23;18.23;;;7.90;;
9997;SDS011;5038;53.064;8.624;2022-12-24T14:53:06;20.43;;;8.57;;
9997;SDS011;5038;53.064;8.624;2022-12-24T14:55:47;17.93;;;8.50;;
9997;SDS011;5038;53.064;8.624;2022-12-24T14:58:26;21.43;;;10.43;;
9997;SDS011;5038;53.064;8.624;2022-12-24T15:00:57;18.50;;;8.63;;
9997;SDS011;5038;53.064;8.624;2022-12-24T15:03:27;24.93;;;9.20;;
9997;SDS011;5038;53.064;8.624;2022-12-24T15:05:58;24.67;;;9.03;;
9997;SDS011;5038;53.064;8.624;2022-12-24T15:08:31;22.07;;;8.10;;
9997;SDS011;5038;53.064;8.624;2022-12-24T15:11:04;16.03;;;7.67;;
9997;SDS011;5038;53.064;8.624;2022-12-24T15:13:35;15.60;;;7.67;;
9997;SDS011;5038;53.064;8.624;2022-12-24T15:16:06;16.87;;;8.13;;
9997;SDS011;5038;53.064;8.624;2022-12-24T15:18:37;23.80;;;8.27;;
9997;SDS011;5038;53.064;8.624;2022-12-24T15:21:13;22.33;;;9.90;;
9997;SDS011;5038;53.064;8.624;2022-12-24T15:23:46;24.90;;;9.23;;
9997;SDS011;5038;53.064;8.624;2022-12-24T15:26:20;26.70;;;13.60;;
9997;SDS011;5038;53.064;8.624;2022-12-24T15:28:50;19.10;;;11.43;;
9997;SDS011;5038;53.064;8.624;2022-12-24T15:31:28;25.33;;;12.00;;
9997;SDS011;5038;53.064;8.624;2022-12-24T15:33:57;17.03;;;9.27;;